createdAt,value
2022-08-14T00:02:16.085Z,25.30
2022-08-14T00:04:45.420Z,25.16
2022-08-14T00:07:14.028Z,25.14
2022-08-14T00:10:02.166Z,25.07
2022-08-14T00:12:39.577Z,25.08
2022-08-14T00:15:16.257Z,24.85
2022-08-14T00:17:47.291Z,25.04
2022-08-14T00:20:30.348Z,25.08
2022-08-14T00:23:00.342Z,24.95
2022-08-14T00:25:41.845Z,25.01
2022-08-14T00:28:15.443Z,24.96
2022-08-14T00:30:46.785Z,25.03
2022-08-14T00:33:16.452Z,24.95
2022-08-14T00:36:36.912Z,24.87
2022-08-14T00:38:35.166Z,24.83
2022-08-14T00:41:05.109Z,24.91
2022-08-14T00:43:34.758Z,24.89
2022-08-14T00:46:08.005Z,24.95
2022-08-14T00:48:38.427Z,25.02
2022-08-14T00:51:08.870Z,24.85
2022-08-14T00:53:37.643Z,24.85
2022-08-14T00:56:08.720Z,24.85
2022-08-14T00:58:44.900Z,24.75
2022-08-14T01:01:17.023Z,24.71
2022-08-14T01:03:45.594Z,24.78
2022-08-14T01:06:18.458Z,24.84
2022-08-14T01:08:52.138Z,24.55
2022-08-14T01:11:35.540Z,24.72
2022-08-14T01:14:25.170Z,24.58
2022-08-14T01:16:53.152Z,24.56
2022-08-14T01:19:43.335Z,24.54
2022-08-14T01:22:12.443Z,24.56
2022-08-14T01:24:43.412Z,24.58
2022-08-14T01:27:19.757Z,24.55
2022-08-14T01:30:03.149Z,24.56
2022-08-14T01:32:37.683Z,24.45
2022-08-14T01:35:19.760Z,24.35
2022-08-14T01:37:58.655Z,24.22
2022-08-14T01:40:36.998Z,24.35
2022-08-14T01:43:18.773Z,24.22
2022-08-14T01:46:06.056Z,24.28
2022-08-14T01:48:37.534Z,24.32
2022-08-14T01:51:19.094Z,24.36
2022-08-14T01:53:51.382Z,24.27
2022-08-14T01:56:39.822Z,24.28
2022-08-14T01:59:10.069Z,24.37
2022-08-14T02:01:56.832Z,24.42
2022-08-14T02:04:55.839Z,24.41
2022-08-14T02:07:34.382Z,24.39
2022-08-14T02:10:13.072Z,24.27
2022-08-14T02:12:48.815Z,24.25
2022-08-14T02:15:22.223Z,24.23
2022-08-14T02:17:50.585Z,24.27
2022-08-14T02:20:19.357Z,24.09
2022-08-14T02:22:52.070Z,24.07
2022-08-14T02:25:22.533Z,24.09
2022-08-14T02:28:24.169Z,24.02
2022-08-14T02:30:44.721Z,23.85
2022-08-14T02:33:13.389Z,23.80
2022-08-14T02:35:43.599Z,23.92
2022-08-14T02:38:29.886Z,23.92
2022-08-14T02:40:58.692Z,23.84
2022-08-14T02:43:36.678Z,23.99
2022-08-14T02:46:13.599Z,24.05
2022-08-14T02:49:01.830Z,23.99
2022-08-14T02:51:34.462Z,23.92
2022-08-14T02:54:03.584Z,23.99
2022-08-14T02:57:15.615Z,23.99
2022-08-14T02:59:21.232Z,23.88
2022-08-14T03:01:50.830Z,23.59
2022-08-14T03:04:22.705Z,23.63
2022-08-14T03:06:58.009Z,23.70
2022-08-14T03:09:42.091Z,23.63
2022-08-14T03:12:30.752Z,23.45
2022-08-14T03:15:09.116Z,23.59
2022-08-14T03:17:56.970Z,23.58
2022-08-14T03:20:28.821Z,23.62
2022-08-14T03:23:00.154Z,23.68
2022-08-14T03:25:31.429Z,23.59
2022-08-14T03:28:03.768Z,23.55
2022-08-14T03:30:39.554Z,23.54
2022-08-14T03:33:12.562Z,23.55
2022-08-14T03:36:00.330Z,23.64
2022-08-14T03:39:13.006Z,23.63
2022-08-14T03:41:23.891Z,23.56
2022-08-14T03:44:01.390Z,23.71
2022-08-14T03:46:54.938Z,23.71
2022-08-14T03:49:28.925Z,23.61
2022-08-14T03:52:00.637Z,23.52
2022-08-14T03:54:29.427Z,23.53
2022-08-14T03:57:02.830Z,23.50
2022-08-14T03:59:35.384Z,23.46
2022-08-14T04:02:04.817Z,23.45
2022-08-14T04:04:52.692Z,23.44
2022-08-14T04:07:20.219Z,23.47
2022-08-14T04:09:50.060Z,23.51
2022-08-14T04:12:26.532Z,23.58
2022-08-14T04:14:54.634Z,23.57
2022-08-14T04:17:22.680Z,23.54
2022-08-14T04:19:50.380Z,23.46
2022-08-14T04:22:21.974Z,23.27
2022-08-14T04:24:50.388Z,23.35
2022-08-14T04:27:18.514Z,23.41
2022-08-14T04:29:45.983Z,23.48
2022-08-14T04:32:59.877Z,23.52
2022-08-14T04:35:07.716Z,23.58
2022-08-14T04:37:57.036Z,23.74
2022-08-14T04:40:43.205Z,23.71
2022-08-14T04:43:38.614Z,23.81
2022-08-14T04:46:56.350Z,23.96
2022-08-14T04:49:07.852Z,24.05
2022-08-14T04:51:46.196Z,24.22
2022-08-14T04:54:17.237Z,24.23
2022-08-14T04:56:45.458Z,23.95
2022-08-14T04:59:13.090Z,24.26
2022-08-14T05:01:45.132Z,24.24
2022-08-14T05:04:19.930Z,24.39
2022-08-14T05:06:53.721Z,24.57
2022-08-14T05:09:23.886Z,24.63
2022-08-14T05:11:53.073Z,24.79
2022-08-14T05:14:45.204Z,24.82
2022-08-14T05:17:13.366Z,24.88
2022-08-14T05:19:44.825Z,25.12
2022-08-14T05:22:29.018Z,25.22
2022-08-14T05:24:56.506Z,25.31
2022-08-14T05:27:24.208Z,25.23
2022-08-14T05:29:53.626Z,25.49
2022-08-14T05:32:27.407Z,25.59
2022-08-14T05:34:58.433Z,25.66
2022-08-14T05:37:28.049Z,25.90
2022-08-14T05:39:56.531Z,26.06
2022-08-14T05:42:29.477Z,26.08
2022-08-14T05:44:59.810Z,26.00
2022-08-14T05:47:28.975Z,26.22
2022-08-14T05:50:02.317Z,26.18
2022-08-14T05:52:39.041Z,25.95
2022-08-14T05:55:09.410Z,26.14
2022-08-14T05:57:48.010Z,26.38
2022-08-14T06:00:28.973Z,26.40
2022-08-14T06:03:04.091Z,26.32
2022-08-14T06:05:35.213Z,26.09
2022-08-14T06:08:21.740Z,26.04
2022-08-14T06:11:06.132Z,26.10
2022-08-14T06:13:45.860Z,26.60
2022-08-14T06:16:18.343Z,26.39
2022-08-14T06:18:51.785Z,26.50
2022-08-14T06:21:22.624Z,26.69
2022-08-14T06:23:51.468Z,26.35
2022-08-14T06:26:20.897Z,26.77
2022-08-14T06:28:52.154Z,27.09
2022-08-14T06:31:21.224Z,26.95
2022-08-14T06:35:02.676Z,27.12
2022-08-14T06:36:39.240Z,27.17
2022-08-14T06:39:10.331Z,27.39
2022-08-14T06:41:57.535Z,27.31
2022-08-14T06:44:30.616Z,26.93
2022-08-14T06:47:05.415Z,27.24
2022-08-14T06:49:40.260Z,27.28
2022-08-14T06:52:15.394Z,27.58
2022-08-14T06:54:44.771Z,27.58
2022-08-14T06:57:12.569Z,26.81
2022-08-14T06:59:42.124Z,27.26
2022-08-14T07:02:28.862Z,27.47
2022-08-14T07:05:23.037Z,27.58
2022-08-14T07:07:51.440Z,27.42
2022-08-14T07:10:22.128Z,27.53
2022-08-14T07:13:02.422Z,27.31
2022-08-14T07:15:34.279Z,27.40
2022-08-14T07:18:09.466Z,27.48
2022-08-14T07:20:38.602Z,27.29
2022-08-14T07:23:10.995Z,27.42
2022-08-14T07:25:48.107Z,27.50
2022-08-14T07:28:21.551Z,27.54
2022-08-14T07:30:51.928Z,27.69
2022-08-14T07:33:24.713Z,27.59
2022-08-14T07:36:00.194Z,27.60
2022-08-14T07:38:35.679Z,27.92
2022-08-14T07:41:06.837Z,27.76
2022-08-14T07:43:41.217Z,27.98
2022-08-14T07:46:09.562Z,28.24
2022-08-14T07:48:41.525Z,27.69
2022-08-14T07:51:10.716Z,28.07
2022-08-14T07:53:41.143Z,28.31
2022-08-14T07:56:43.664Z,28.57
2022-08-14T07:58:59.691Z,28.58
2022-08-14T08:01:30.011Z,28.16
2022-08-14T08:04:01.439Z,28.63
2022-08-14T08:06:31.120Z,28.51
2022-08-14T08:09:02.780Z,28.53
2022-08-14T08:11:37.398Z,28.77
2022-08-14T08:14:10.715Z,28.86
2022-08-14T08:16:50.991Z,28.46
2022-08-14T08:19:19.667Z,28.93
2022-08-14T08:21:47.505Z,28.48
2022-08-14T08:24:19.674Z,28.27
2022-08-14T08:26:50.776Z,28.86
2022-08-14T08:29:22.373Z,28.91
2022-08-14T08:32:01.974Z,29.07
2022-08-14T08:34:46.230Z,29.37
2022-08-14T08:37:14.826Z,29.45
2022-08-14T08:40:02.660Z,29.42
2022-08-14T08:42:38.856Z,29.30
2022-08-14T08:45:12.238Z,29.27
2022-08-14T08:47:41.013Z,29.02
2022-08-14T08:50:31.314Z,29.13
2022-08-14T08:53:02.163Z,29.82
2022-08-14T08:55:32.682Z,29.82
2022-08-14T08:58:05.433Z,29.92
2022-08-14T09:00:42.973Z,29.63
2022-08-14T09:03:15.673Z,29.98
2022-08-14T09:05:56.159Z,29.80
2022-08-14T09:08:31.317Z,30.09
2022-08-14T09:11:18.535Z,30.10
2022-08-14T09:13:53.208Z,30.28
2022-08-14T09:16:23.727Z,30.61
2022-08-14T09:18:53.966Z,30.09
2022-08-14T09:21:24.108Z,30.38
2022-08-14T09:24:28.892Z,30.58
2022-08-14T09:26:49.205Z,30.72
2022-08-14T09:29:20.029Z,30.73
2022-08-14T09:31:57.013Z,30.71
2022-08-14T09:34:37.265Z,30.58
2022-08-14T09:37:49.224Z,30.73
2022-08-14T09:40:48.897Z,30.42
2022-08-14T09:43:31.085Z,30.74
2022-08-14T09:46:02.542Z,31.12
2022-08-14T09:48:31.381Z,31.23
2022-08-14T09:54:18.470Z,30.81
2022-08-14T09:56:44.381Z,31.50
2022-08-14T09:59:16.137Z,31.57
2022-08-14T10:01:46.121Z,31.49
2022-08-14T10:04:36.723Z,31.51
2022-08-14T10:07:10.083Z,31.43
2022-08-14T10:09:59.658Z,31.49
2022-08-14T10:12:48.590Z,31.68
2022-08-14T10:15:23.147Z,31.70
2022-08-14T10:18:04.047Z,31.62
2022-08-14T10:20:40.281Z,32.17
2022-08-14T10:23:16.504Z,32.41
2022-08-14T10:25:53.010Z,32.82
2022-08-14T10:28:51.524Z,33.15
2022-08-14T10:31:44.744Z,33.13
2022-08-14T10:34:19.028Z,32.53
2022-08-14T10:37:02.145Z,33.48
2022-08-14T10:39:30.327Z,33.34
2022-08-14T10:42:22.037Z,33.36
2022-08-14T10:44:52.460Z,33.51
2022-08-14T10:47:41.210Z,33.54
2022-08-14T10:50:12.074Z,33.06
2022-08-14T10:52:43.316Z,33.28
2022-08-14T10:55:14.689Z,32.74
2022-08-14T10:57:52.522Z,33.57
2022-08-14T11:00:30.318Z,33.19
2022-08-14T11:03:15.698Z,32.77
2022-08-14T11:05:52.157Z,33.45
2022-08-14T11:08:32.082Z,33.11
2022-08-14T11:11:02.116Z,33.58
2022-08-14T11:13:31.881Z,33.49
2022-08-14T11:16:01.637Z,33.82
2022-08-14T11:18:35.891Z,33.88
2022-08-14T11:21:09.472Z,34.22
2022-08-14T11:23:43.845Z,34.26
2022-08-14T11:26:14.194Z,34.18
2022-08-14T11:28:49.925Z,33.92
2022-08-14T11:31:22.216Z,33.79
2022-08-14T11:33:53.112Z,33.46
2022-08-14T11:36:23.848Z,33.00
2022-08-14T11:39:03.103Z,32.83
2022-08-14T11:41:41.424Z,33.39
2022-08-14T11:44:17.816Z,34.26
2022-08-14T11:47:05.903Z,33.79
2022-08-14T11:49:35.181Z,34.26
2022-08-14T11:52:02.735Z,33.73
2022-08-14T11:54:34.350Z,33.70
2022-08-14T11:57:04.418Z,33.77
2022-08-14T11:59:33.969Z,33.37
2022-08-14T12:03:00.600Z,33.11
2022-08-14T12:05:04.932Z,33.46
2022-08-14T12:07:36.962Z,33.78
2022-08-14T12:10:25.392Z,33.60
2022-08-14T12:12:56.500Z,33.21
2022-08-14T12:15:36.082Z,33.36
2022-08-14T12:18:06.517Z,33.96
2022-08-14T12:20:45.624Z,33.77
2022-08-14T12:23:25.621Z,33.96
2022-08-14T12:26:32.157Z,33.50
2022-08-14T12:29:08.707Z,33.44
2022-08-14T12:31:46.630Z,33.86
2022-08-14T12:34:20.673Z,33.82
2022-08-14T12:37:03.287Z,33.70
2022-08-14T12:39:30.865Z,33.14
2022-08-14T12:42:08.597Z,33.43
2022-08-14T12:44:43.972Z,33.47
2022-08-14T12:47:16.785Z,33.54
2022-08-14T12:49:57.844Z,33.54
2022-08-14T12:53:01.910Z,33.33
2022-08-14T12:56:18.368Z,33.29
2022-08-14T12:58:28.776Z,33.52
2022-08-14T13:01:16.176Z,33.89
2022-08-14T13:03:45.838Z,33.53
2022-08-14T13:06:14.645Z,33.35
2022-08-14T13:08:53.057Z,33.06
2022-08-14T13:11:23.774Z,33.03
2022-08-14T13:13:53.937Z,33.30
2022-08-14T13:16:33.608Z,33.35
2022-08-14T13:19:10.992Z,33.49
2022-08-14T13:21:58.992Z,33.07
2022-08-14T13:24:28.050Z,32.92
2022-08-14T13:26:58.461Z,33.48
2022-08-14T13:29:29.679Z,33.55
2022-08-14T13:31:59.500Z,33.41
2022-08-14T13:34:29.126Z,33.58
2022-08-14T13:37:03.661Z,33.68
2022-08-14T13:39:36.204Z,33.50
2022-08-14T13:42:13.507Z,33.60
2022-08-14T13:44:42.868Z,33.50
2022-08-14T13:47:14.699Z,33.67
2022-08-14T13:49:57.395Z,33.61
2022-08-14T13:52:51.988Z,33.37
2022-08-14T13:55:15.821Z,33.30
2022-08-14T13:57:49.752Z,33.38
2022-08-14T14:00:36.099Z,33.44
2022-08-14T14:03:24.160Z,33.49
2022-08-14T14:05:54.514Z,33.46
2022-08-14T14:08:46.906Z,33.02
2022-08-14T14:11:15.870Z,33.11
2022-08-14T14:13:45.965Z,32.82
2022-08-14T14:16:26.090Z,32.97
2022-08-14T14:19:08.851Z,33.06
2022-08-14T14:21:37.543Z,32.98
2022-08-14T14:24:06.238Z,33.08
2022-08-14T14:26:36.140Z,33.20
2022-08-14T14:29:06.407Z,33.24
2022-08-14T14:31:36.646Z,32.81
2022-08-14T14:34:19.930Z,33.06
2022-08-14T14:37:02.894Z,33.54
2022-08-14T14:39:37.673Z,33.36
2022-08-14T14:42:31.785Z,32.84
2022-08-14T14:45:07.651Z,32.91
2022-08-14T14:47:36.827Z,33.33
2022-08-14T14:50:04.698Z,33.62
2022-08-14T14:52:37.066Z,33.91
2022-08-14T14:55:07.081Z,33.82
2022-08-14T14:57:36.277Z,33.26
2022-08-14T15:00:12.566Z,33.49
2022-08-14T15:02:49.743Z,33.90
2022-08-14T15:05:20.240Z,33.66
2022-08-14T15:07:50.073Z,33.49
2022-08-14T15:10:27.739Z,33.92
2022-08-14T15:13:03.843Z,33.49
2022-08-14T15:15:36.964Z,33.90
2022-08-14T15:18:14.939Z,34.07
2022-08-14T15:20:57.543Z,33.86
2022-08-14T15:23:32.451Z,34.00
2022-08-14T15:26:23.916Z,33.97
2022-08-14T15:29:06.171Z,34.08
2022-08-14T15:31:37.013Z,34.06
2022-08-14T15:34:43.402Z,34.02
2022-08-14T15:36:59.593Z,33.59
2022-08-14T15:39:29.272Z,33.83
2022-08-14T15:42:02.654Z,34.41
2022-08-14T15:44:36.479Z,34.48
2022-08-14T15:47:07.071Z,34.13
2022-08-14T15:49:35.777Z,33.95
2022-08-14T15:52:08.157Z,33.99
2022-08-14T15:54:38.696Z,34.30
2022-08-14T15:57:09.368Z,34.07
2022-08-14T15:59:56.794Z,33.83
2022-08-14T16:02:27.798Z,33.47
2022-08-14T16:04:56.365Z,33.51
2022-08-14T16:07:25.312Z,33.61
2022-08-14T16:10:25.308Z,33.62
2022-08-14T16:12:47.430Z,33.66
2022-08-14T16:15:16.886Z,33.53
2022-08-14T16:17:45.941Z,33.85
2022-08-14T16:20:41.062Z,33.52
2022-08-14T16:23:10.369Z,33.55
2022-08-14T16:25:41.973Z,33.75
2022-08-14T16:28:27.086Z,33.59
2022-08-14T16:30:56.105Z,33.51
2022-08-14T16:33:28.024Z,33.56
2022-08-14T16:36:30.809Z,33.38
2022-08-14T16:39:01.933Z,33.14
2022-08-14T16:41:29.846Z,32.91
2022-08-14T16:43:59.409Z,32.38
2022-08-14T16:46:31.539Z,32.27
2022-08-14T16:49:02.047Z,31.95
2022-08-14T16:51:31.117Z,32.14
2022-08-14T16:54:20.549Z,32.00
2022-08-14T16:56:54.200Z,32.10
2022-08-14T16:59:30.605Z,32.08
2022-08-14T17:02:12.322Z,32.27
2022-08-14T17:04:41.249Z,32.28
2022-08-14T17:07:13.829Z,32.17
2022-08-14T17:09:48.535Z,32.32
2022-08-14T17:12:33.582Z,32.24
2022-08-14T17:15:10.586Z,32.26
2022-08-14T17:17:38.507Z,31.87
2022-08-14T17:21:01.884Z,31.88
2022-08-14T17:22:59.742Z,31.62
2022-08-14T17:25:31.084Z,31.76
2022-08-14T17:28:51.716Z,31.90
2022-08-14T17:31:04.486Z,31.87
2022-08-14T17:33:40.525Z,31.72
2022-08-14T17:36:20.059Z,31.84
2022-08-14T17:39:17.356Z,31.73
2022-08-14T17:42:01.732Z,31.79
2022-08-14T17:44:45.025Z,31.76
2022-08-14T17:47:17.997Z,31.79
2022-08-14T17:49:51.961Z,31.70
2022-08-14T17:52:34.938Z,31.71
2022-08-14T17:56:00.873Z,31.65
2022-08-14T17:58:20.633Z,31.63
2022-08-14T18:00:51.525Z,31.60
2022-08-14T18:03:50.292Z,31.60
2022-08-14T18:06:40.109Z,31.50
2022-08-14T18:08:58.660Z,31.43
2022-08-14T18:11:27.042Z,31.31
2022-08-14T18:14:31.407Z,31.32
2022-08-14T18:17:01.484Z,31.25
2022-08-14T18:19:34.575Z,31.25
2022-08-14T18:22:23.633Z,31.18
2022-08-14T18:24:53.642Z,31.14
2022-08-14T18:27:23.428Z,31.03
2022-08-14T18:29:56.466Z,31.02
2022-08-14T18:32:31.735Z,30.96
2022-08-14T18:35:11.403Z,30.96
2022-08-14T18:37:55.757Z,30.82
2022-08-14T18:40:34.522Z,30.73
2022-08-14T18:43:03.686Z,30.50
2022-08-14T18:45:33.458Z,30.53
2022-08-14T18:48:19.935Z,30.50
2022-08-14T18:50:52.697Z,30.64
2022-08-14T18:53:24.730Z,30.56
2022-08-14T18:56:10.032Z,30.45
2022-08-14T18:58:56.841Z,30.45
2022-08-14T19:01:29.761Z,30.45
2022-08-14T19:03:59.866Z,30.38
2022-08-14T19:06:40.201Z,30.34
2022-08-14T19:09:50.461Z,30.36
2022-08-14T19:12:53.851Z,30.33
2022-08-14T19:15:31.459Z,30.17
2022-08-14T19:18:14.061Z,30.18
2022-08-14T19:20:52.795Z,30.05
2022-08-14T19:23:42.256Z,30.04
2022-08-14T19:26:36.673Z,29.92
2022-08-14T19:29:37.800Z,29.92
2022-08-14T19:32:42.725Z,29.85
2022-08-14T19:35:49.334Z,29.83
2022-08-14T19:38:53.532Z,29.80
2022-08-14T19:41:29.661Z,29.74
2022-08-14T19:44:12.133Z,29.47
2022-08-14T19:47:01.953Z,29.35
2022-08-14T19:50:07.997Z,29.30
2022-08-14T19:52:27.552Z,29.22
2022-08-14T19:54:58.840Z,29.13
2022-08-14T19:57:29.520Z,29.16
2022-08-14T20:00:28.143Z,29.07
2022-08-14T20:03:10.997Z,29.03
2022-08-14T20:05:43.138Z,28.94
2022-08-14T20:11:01.258Z,28.95
2022-08-14T20:11:19.070Z,28.87
2022-08-14T20:14:20.684Z,28.85
2022-08-14T20:17:03.200Z,28.65
2022-08-14T20:19:37.861Z,28.51
2022-08-14T20:22:37.061Z,28.47
2022-08-14T20:25:15.392Z,28.25
2022-08-14T20:27:44.750Z,28.36
2022-08-14T20:30:35.074Z,28.34
2022-08-14T20:33:10.952Z,28.39
2022-08-14T20:35:39.358Z,28.29
2022-08-14T20:38:33.385Z,28.33
2022-08-14T20:41:05.690Z,28.29
2022-08-14T20:43:55.218Z,28.21
2022-08-14T20:46:29.389Z,28.16
2022-08-14T20:48:57.659Z,28.15
2022-08-14T20:51:36.975Z,28.20
2022-08-14T20:54:07.451Z,27.97
2022-08-14T20:56:41.349Z,27.98
2022-08-14T20:59:18.040Z,27.91
2022-08-14T21:01:55.621Z,27.93
2022-08-14T21:04:35.873Z,27.85
2022-08-14T21:07:25.215Z,27.90
2022-08-14T21:10:35.754Z,27.95
2022-08-14T21:14:08.894Z,28.00
2022-08-14T21:16:03.746Z,27.96
2022-08-14T21:18:34.386Z,27.98
2022-08-14T21:21:07.955Z,27.89
2022-08-14T21:23:55.213Z,27.78
2022-08-14T21:26:52.048Z,27.69
2022-08-14T21:29:20.913Z,27.51
2022-08-14T21:31:55.570Z,27.72
2022-08-14T21:34:31.476Z,27.69
2022-08-14T21:37:07.775Z,27.58
2022-08-14T21:39:38.244Z,27.54
2022-08-14T21:42:06.309Z,27.44
2022-08-14T21:44:36.165Z,27.41
2022-08-14T21:47:16.646Z,27.48
2022-08-14T21:49:46.333Z,27.23
2022-08-14T21:52:52.011Z,26.94
2022-08-14T21:55:12.283Z,27.14
2022-08-14T21:58:51.359Z,27.07
2022-08-14T22:00:39.716Z,27.16
2022-08-14T22:03:17.043Z,27.15
2022-08-14T22:05:47.004Z,27.08
2022-08-14T22:08:16.173Z,27.16
2022-08-14T22:10:46.602Z,27.11
2022-08-14T22:13:17.440Z,26.99
2022-08-14T22:15:49.760Z,27.07
2022-08-14T22:18:20.389Z,26.95
2022-08-14T22:20:53.828Z,26.89
2022-08-14T22:23:24.982Z,26.98
2022-08-14T22:25:55.161Z,27.00
2022-08-14T22:28:32.391Z,27.01
2022-08-14T22:31:10.372Z,27.09
2022-08-14T22:33:39.595Z,27.15
2022-08-14T22:36:33.634Z,27.10
2022-08-14T22:39:02.491Z,27.12
2022-08-14T22:41:42.225Z,27.16
2022-08-14T22:44:13.621Z,27.12
2022-08-14T22:46:43.262Z,26.94
2022-08-14T22:49:15.542Z,26.92
2022-08-14T22:52:00.759Z,26.94
2022-08-14T22:54:51.262Z,26.97
2022-08-14T22:57:18.292Z,26.99
2022-08-14T22:59:46.314Z,27.05
2022-08-14T23:02:30.015Z,27.03
2022-08-14T23:04:59.384Z,27.00
2022-08-14T23:08:58.574Z,26.90
2022-08-14T23:10:33.099Z,26.93
2022-08-14T23:13:04.084Z,26.91
2022-08-14T23:15:34.096Z,26.88
2022-08-14T23:18:03.230Z,26.77
2022-08-14T23:20:33.721Z,26.67
2022-08-14T23:23:13.798Z,26.47
2022-08-14T23:25:59.840Z,26.49
2022-08-14T23:28:33.460Z,26.63
2022-08-14T23:31:15.770Z,26.68
2022-08-14T23:34:11.028Z,26.58
2022-08-14T23:36:54.192Z,26.51
2022-08-14T23:39:32.638Z,26.44
2022-08-14T23:42:07.622Z,26.56
2022-08-14T23:44:38.111Z,26.52
2022-08-14T23:47:11.722Z,26.51
2022-08-14T23:50:03.443Z,26.60
2022-08-14T23:52:51.665Z,26.70
2022-08-14T23:55:29.982Z,26.84
2022-08-14T23:57:59.274Z,26.83
